sensor_id;sensor_type;location;lat;lon;timestamp;P1;durP1;ratioP1;P2;durP2;ratioP2
7563;SDS011;3823;53.586;10.040;2023-11-21T00:02:24;13.50;;;8.05;;
7563;SDS011;3823;53.586;10.040;2023-11-21T00:04:50;10.93;;;7.03;;
7563;SDS011;3823;53.586;10.040;2023-11-21T00:07:16;15.93;;;9.13;;
7563;SDS011;3823;53.586;10.040;2023-11-21T00:09:41;14.65;;;7.82;;
7563;SDS011;3823;53.586;10.040;2023-11-21T00:12:10;11.75;;;7.30;;
7563;SDS011;3823;53.586;10.040;2023-11-21T00:14:36;8.13;;;5.78;;
7563;SDS011;3823;53.586;10.040;2023-11-21T00:17:03;10.57;;;6.00;;
7563;SDS011;3823;53.586;10.040;2023-11-21T00:19:30;10.18;;;6.25;;
7563;SDS011;3823;53.586;10.040;2023-11-21T00:21:55;8.80;;;5.47;;
7563;SDS011;3823;53.586;10.040;2023-11-21T00:24:23;8.45;;;6.20;;
7563;SDS011;3823;53.586;10.040;2023-11-21T00:26:49;9.35;;;6.82;;
7563;SDS011;3823;53.586;10.040;2023-11-21T00:29:15;11.85;;;7.82;;
7563;SDS011;3823;53.586;10.040;2023-11-21T00:31:42;15.65;;;9.57;;
7563;SDS011;3823;53.586;10.040;2023-11-21T00:34:10;13.55;;;7.88;;
7563;SDS011;3823;53.586;10.040;2023-11-21T00:36:36;14.68;;;8.93;;
7563;SDS011;3823;53.586;10.040;2023-11-21T00:39:02;14.50;;;9.45;;
7563;SDS011;3823;53.586;10.040;2023-11-21T00:41:29;17.73;;;10.25;;
7563;SDS011;3823;53.586;10.040;2023-11-21T00:43:54;19.02;;;10.13;;
7563;SDS011;3823;53.586;10.040;2023-11-21T00:46:20;18.02;;;10.32;;
7563;SDS011;3823;53.586;10.040;2023-11-21T00:48:46;18.23;;;11.38;;
7563;SDS011;3823;53.586;10.040;2023-11-21T00:51:11;17.02;;;9.95;;
7563;SDS011;3823;53.586;10.040;2023-11-21T00:53:37;15.30;;;9.63;;
7563;SDS011;3823;53.586;10.040;2023-11-21T00:56:03;21.73;;;11.38;;
7563;SDS011;3823;53.586;10.040;2023-11-21T00:58:28;21.50;;;10.40;;
7563;SDS011;3823;53.586;10.040;2023-11-21T01:00:55;19.20;;;10.57;;
7563;SDS011;3823;53.586;10.040;2023-11-21T01:03:21;22.85;;;12.30;;
7563;SDS011;3823;53.586;10.040;2023-11-21T01:05:46;25.20;;;12.98;;
7563;SDS011;3823;53.586;10.040;2023-11-21T01:08:14;24.17;;;14.25;;
7563;SDS011;3823;53.586;10.040;2023-11-21T01:10:40;23.98;;;13.07;;
7563;SDS011;3823;53.586;10.040;2023-11-21T01:13:06;27.17;;;13.98;;
7563;SDS011;3823;53.586;10.040;2023-11-21T01:15:32;23.40;;;13.63;;
7563;SDS011;3823;53.586;10.040;2023-11-21T01:17:58;23.23;;;12.25;;
7563;SDS011;3823;53.586;10.040;2023-11-21T01:20:24;30.15;;;13.63;;
7563;SDS011;3823;53.586;10.040;2023-11-21T01:22:49;23.65;;;13.00;;
7563;SDS011;3823;53.586;10.040;2023-11-21T01:25:15;19.50;;;12.43;;
7563;SDS011;3823;53.586;10.040;2023-11-21T01:27:41;22.25;;;12.00;;
7563;SDS011;3823;53.586;10.040;2023-11-21T01:30:07;16.52;;;11.18;;
7563;SDS011;3823;53.586;10.040;2023-11-21T01:32:35;21.77;;;11.98;;
7563;SDS011;3823;53.586;10.040;2023-11-21T01:35:02;17.50;;;12.15;;
7563;SDS011;3823;53.586;10.040;2023-11-21T01:37:30;23.67;;;11.35;;
7563;SDS011;3823;53.586;10.040;2023-11-21T01:39:56;19.33;;;10.35;;
7563;SDS011;3823;53.586;10.040;2023-11-21T01:42:22;19.55;;;12.27;;
7563;SDS011;3823;53.586;10.040;2023-11-21T01:44:48;19.67;;;9.85;;
7563;SDS011;3823;53.586;10.040;2023-11-21T01:47:14;16.75;;;11.25;;
7563;SDS011;3823;53.586;10.040;2023-11-21T01:49:41;15.05;;;9.20;;
7563;SDS011;3823;53.586;10.040;2023-11-21T01:52:10;17.20;;;9.52;;
7563;SDS011;3823;53.586;10.040;2023-11-21T01:54:36;15.38;;;9.82;;
7563;SDS011;3823;53.586;10.040;2023-11-21T01:57:02;15.57;;;9.40;;
7563;SDS011;3823;53.586;10.040;2023-11-21T01:59:33;14.48;;;9.60;;
7563;SDS011;3823;53.586;10.040;2023-11-21T02:02:01;14.15;;;8.45;;
7563;SDS011;3823;53.586;10.040;2023-11-21T02:04:29;12.52;;;8.48;;
7563;SDS011;3823;53.586;10.040;2023-11-21T02:06:56;13.43;;;8.88;;
7563;SDS011;3823;53.586;10.040;2023-11-21T02:09:25;13.25;;;9.13;;
7563;SDS011;3823;53.586;10.040;2023-11-21T02:11:52;11.05;;;8.20;;
7563;SDS011;3823;53.586;10.040;2023-11-21T02:14:21;13.10;;;8.57;;
7563;SDS011;3823;53.586;10.040;2023-11-21T02:16:47;11.07;;;8.27;;
7563;SDS011;3823;53.586;10.040;2023-11-21T02:19:15;9.75;;;7.05;;
7563;SDS011;3823;53.586;10.040;2023-11-21T02:21:54;12.23;;;7.05;;
7563;SDS011;3823;53.586;10.040;2023-11-21T02:24:23;13.35;;;8.93;;
7563;SDS011;3823;53.586;10.040;2023-11-21T02:26:49;12.02;;;8.40;;
7563;SDS011;3823;53.586;10.040;2023-11-21T02:29:18;15.85;;;7.50;;
7563;SDS011;3823;53.586;10.040;2023-11-21T02:31:47;21.55;;;7.05;;
7563;SDS011;3823;53.586;10.040;2023-11-21T02:34:16;12.77;;;7.60;;
7563;SDS011;3823;53.586;10.040;2023-11-21T02:36:46;11.18;;;7.50;;
7563;SDS011;3823;53.586;10.040;2023-11-21T02:39:14;8.43;;;6.68;;
7563;SDS011;3823;53.586;10.040;2023-11-21T02:41:41;9.82;;;6.28;;
7563;SDS011;3823;53.586;10.040;2023-11-21T02:44:07;11.35;;;7.50;;
7563;SDS011;3823;53.586;10.040;2023-11-21T02:46:33;13.75;;;7.30;;
7563;SDS011;3823;53.586;10.040;2023-11-21T02:49:03;11.48;;;7.45;;
7563;SDS011;3823;53.586;10.040;2023-11-21T02:51:29;11.75;;;7.40;;
7563;SDS011;3823;53.586;10.040;2023-11-21T02:53:55;13.32;;;7.50;;
7563;SDS011;3823;53.586;10.040;2023-11-21T02:56:25;9.10;;;6.35;;
7563;SDS011;3823;53.586;10.040;2023-11-21T02:58:51;9.45;;;6.90;;
7563;SDS011;3823;53.586;10.040;2023-11-21T03:01:17;12.77;;;8.77;;
7563;SDS011;3823;53.586;10.040;2023-11-21T03:03:42;10.25;;;7.13;;
7563;SDS011;3823;53.586;10.040;2023-11-21T03:06:08;11.00;;;6.88;;
7563;SDS011;3823;53.586;10.040;2023-11-21T03:08:34;10.65;;;7.40;;
7563;SDS011;3823;53.586;10.040;2023-11-21T03:11:00;10.68;;;7.35;;
7563;SDS011;3823;53.586;10.040;2023-11-21T03:13:27;10.27;;;7.63;;
7563;SDS011;3823;53.586;10.040;2023-11-21T03:15:53;12.00;;;7.93;;
7563;SDS011;3823;53.586;10.040;2023-11-21T03:18:19;10.50;;;7.72;;
7563;SDS011;3823;53.586;10.040;2023-11-21T03:20:47;8.18;;;6.75;;
7563;SDS011;3823;53.586;10.040;2023-11-21T03:23:12;10.60;;;8.07;;
7563;SDS011;3823;53.586;10.040;2023-11-21T03:25:38;12.90;;;7.70;;
7563;SDS011;3823;53.586;10.040;2023-11-21T03:28:03;11.98;;;7.68;;
7563;SDS011;3823;53.586;10.040;2023-11-21T03:30:29;10.27;;;7.20;;
7563;SDS011;3823;53.586;10.040;2023-11-21T03:32:55;11.68;;;7.05;;
7563;SDS011;3823;53.586;10.040;2023-11-21T03:35:20;11.07;;;7.72;;
7563;SDS011;3823;53.586;10.040;2023-11-21T03:37:46;9.95;;;7.05;;
7563;SDS011;3823;53.586;10.040;2023-11-21T03:40:12;10.13;;;7.43;;
7563;SDS011;3823;53.586;10.040;2023-11-21T03:42:38;13.98;;;7.95;;
7563;SDS011;3823;53.586;10.040;2023-11-21T03:45:04;9.75;;;6.47;;
7563;SDS011;3823;53.586;10.040;2023-11-21T03:47:30;13.27;;;7.85;;
7563;SDS011;3823;53.586;10.040;2023-11-21T03:49:56;12.35;;;7.53;;
7563;SDS011;3823;53.586;10.040;2023-11-21T03:52:22;12.93;;;7.22;;
7563;SDS011;3823;53.586;10.040;2023-11-21T03:54:47;13.13;;;8.45;;
7563;SDS011;3823;53.586;10.040;2023-11-21T03:57:13;10.32;;;7.05;;
7563;SDS011;3823;53.586;10.040;2023-11-21T03:59:42;9.98;;;7.50;;
7563;SDS011;3823;53.586;10.040;2023-11-21T04:02:08;12.32;;;6.88;;
7563;SDS011;3823;53.586;10.040;2023-11-21T04:04:34;9.10;;;6.95;;
7563;SDS011;3823;53.586;10.040;2023-11-21T04:07:01;10.25;;;7.50;;
7563;SDS011;3823;53.586;10.040;2023-11-21T04:09:26;11.38;;;7.85;;
7563;SDS011;3823;53.586;10.040;2023-11-21T04:11:53;12.25;;;7.20;;
7563;SDS011;3823;53.586;10.040;2023-11-21T04:14:18;12.63;;;8.10;;
7563;SDS011;3823;53.586;10.040;2023-11-21T04:16:45;12.75;;;8.25;;
7563;SDS011;3823;53.586;10.040;2023-11-21T04:19:10;12.63;;;8.45;;
7563;SDS011;3823;53.586;10.040;2023-11-21T04:21:36;11.38;;;8.02;;
7563;SDS011;3823;53.586;10.040;2023-11-21T04:24:02;10.55;;;7.78;;
7563;SDS011;3823;53.586;10.040;2023-11-21T04:26:28;13.32;;;9.35;;
7563;SDS011;3823;53.586;10.040;2023-11-21T04:28:53;13.88;;;8.88;;
7563;SDS011;3823;53.586;10.040;2023-11-21T04:31:19;12.93;;;8.18;;
7563;SDS011;3823;53.586;10.040;2023-11-21T04:33:44;11.77;;;8.43;;
7563;SDS011;3823;53.586;10.040;2023-11-21T04:36:10;13.05;;;8.38;;
7563;SDS011;3823;53.586;10.040;2023-11-21T04:38:35;11.50;;;7.03;;
7563;SDS011;3823;53.586;10.040;2023-11-21T04:41:01;13.23;;;8.10;;
7563;SDS011;3823;53.586;10.040;2023-11-21T04:43:27;10.10;;;8.13;;
7563;SDS011;3823;53.586;10.040;2023-11-21T04:45:52;12.15;;;8.73;;
7563;SDS011;3823;53.586;10.040;2023-11-21T04:48:20;13.60;;;8.07;;
7563;SDS011;3823;53.586;10.040;2023-11-21T04:50:45;12.98;;;8.25;;
7563;SDS011;3823;53.586;10.040;2023-11-21T04:53:11;13.18;;;8.55;;
7563;SDS011;3823;53.586;10.040;2023-11-21T04:55:39;8.13;;;6.68;;
7563;SDS011;3823;53.586;10.040;2023-11-21T04:58:08;14.25;;;8.57;;
7563;SDS011;3823;53.586;10.040;2023-11-21T05:00:34;12.70;;;9.02;;
7563;SDS011;3823;53.586;10.040;2023-11-21T05:03:01;12.60;;;7.68;;
7563;SDS011;3823;53.586;10.040;2023-11-21T05:05:28;11.73;;;8.07;;
7563;SDS011;3823;53.586;10.040;2023-11-21T05:07:54;12.25;;;8.57;;
7563;SDS011;3823;53.586;10.040;2023-11-21T05:10:20;10.20;;;7.70;;
7563;SDS011;3823;53.586;10.040;2023-11-21T05:12:47;9.23;;;7.78;;
7563;SDS011;3823;53.586;10.040;2023-11-21T05:15:15;13.38;;;7.90;;
7563;SDS011;3823;53.586;10.040;2023-11-21T05:17:42;12.63;;;7.65;;
7563;SDS011;3823;53.586;10.040;2023-11-21T05:20:13;12.75;;;8.27;;
7563;SDS011;3823;53.586;10.040;2023-11-21T05:22:42;12.23;;;8.30;;
7563;SDS011;3823;53.586;10.040;2023-11-21T05:25:08;9.57;;;7.35;;
7563;SDS011;3823;53.586;10.040;2023-11-21T05:27:34;11.32;;;7.72;;
7563;SDS011;3823;53.586;10.040;2023-11-21T05:30:01;12.32;;;8.25;;
7563;SDS011;3823;53.586;10.040;2023-11-21T05:32:30;13.93;;;7.50;;
7563;SDS011;3823;53.586;10.040;2023-11-21T05:34:56;18.63;;;12.60;;
7563;SDS011;3823;53.586;10.040;2023-11-21T05:37:21;24.98;;;14.30;;
7563;SDS011;3823;53.586;10.040;2023-11-21T05:39:48;10.02;;;7.28;;
7563;SDS011;3823;53.586;10.040;2023-11-21T05:42:14;12.60;;;8.55;;
7563;SDS011;3823;53.586;10.040;2023-11-21T05:44:41;14.70;;;7.25;;
7563;SDS011;3823;53.586;10.040;2023-11-21T05:47:07;12.23;;;7.68;;
7563;SDS011;3823;53.586;10.040;2023-11-21T05:49:32;9.98;;;7.70;;
7563;SDS011;3823;53.586;10.040;2023-11-21T05:51:58;11.88;;;8.73;;
7563;SDS011;3823;53.586;10.040;2023-11-21T05:54:24;9.90;;;7.53;;
7563;SDS011;3823;53.586;10.040;2023-11-21T05:56:51;13.05;;;8.20;;
7563;SDS011;3823;53.586;10.040;2023-11-21T05:59:16;12.60;;;9.63;;
7563;SDS011;3823;53.586;10.040;2023-11-21T06:01:42;15.23;;;8.88;;
7563;SDS011;3823;53.586;10.040;2023-11-21T06:04:08;16.77;;;7.72;;
7563;SDS011;3823;53.586;10.040;2023-11-21T06:06:34;10.18;;;8.07;;
7563;SDS011;3823;53.586;10.040;2023-11-21T06:09:00;18.33;;;7.85;;
7563;SDS011;3823;53.586;10.040;2023-11-21T06:11:25;11.15;;;8.55;;
7563;SDS011;3823;53.586;10.040;2023-11-21T06:13:51;12.68;;;9.43;;
7563;SDS011;3823;53.586;10.040;2023-11-21T06:16:18;9.23;;;7.40;;
7563;SDS011;3823;53.586;10.040;2023-11-21T06:18:44;10.68;;;7.13;;
7563;SDS011;3823;53.586;10.040;2023-11-21T06:21:11;11.43;;;7.95;;
7563;SDS011;3823;53.586;10.040;2023-11-21T06:23:37;14.32;;;9.73;;
7563;SDS011;3823;53.586;10.040;2023-11-21T06:26:02;15.77;;;8.80;;
7563;SDS011;3823;53.586;10.040;2023-11-21T06:28:29;10.52;;;7.65;;
7563;SDS011;3823;53.586;10.040;2023-11-21T06:30:55;9.20;;;7.50;;
7563;SDS011;3823;53.586;10.040;2023-11-21T06:33:22;12.77;;;8.80;;
7563;SDS011;3823;53.586;10.040;2023-11-21T06:35:48;12.20;;;9.00;;
7563;SDS011;3823;53.586;10.040;2023-11-21T06:38:14;15.55;;;8.85;;
7563;SDS011;3823;53.586;10.040;2023-11-21T06:40:40;15.27;;;8.90;;
7563;SDS011;3823;53.586;10.040;2023-11-21T06:43:06;11.00;;;7.78;;
7563;SDS011;3823;53.586;10.040;2023-11-21T06:45:32;12.32;;;7.75;;
7563;SDS011;3823;53.586;10.040;2023-11-21T06:47:59;16.20;;;8.98;;
7563;SDS011;3823;53.586;10.040;2023-11-21T06:50:24;11.68;;;8.40;;
7563;SDS011;3823;53.586;10.040;2023-11-21T06:52:50;9.40;;;7.65;;
7563;SDS011;3823;53.586;10.040;2023-11-21T06:55:16;15.85;;;8.07;;
7563;SDS011;3823;53.586;10.040;2023-11-21T06:57:41;14.65;;;8.20;;
7563;SDS011;3823;53.586;10.040;2023-11-21T07:00:08;12.85;;;7.20;;
7563;SDS011;3823;53.586;10.040;2023-11-21T07:02:34;11.25;;;6.82;;
7563;SDS011;3823;53.586;10.040;2023-11-21T07:04:59;11.77;;;7.68;;
7563;SDS011;3823;53.586;10.040;2023-11-21T07:07:25;11.23;;;8.10;;
7563;SDS011;3823;53.586;10.040;2023-11-21T07:09:52;9.73;;;7.60;;
7563;SDS011;3823;53.586;10.040;2023-11-21T07:12:18;10.90;;;8.05;;
7563;SDS011;3823;53.586;10.040;2023-11-21T07:14:43;13.98;;;9.13;;
7563;SDS011;3823;53.586;10.040;2023-11-21T07:17:10;10.48;;;8.05;;
7563;SDS011;3823;53.586;10.040;2023-11-21T07:19:37;10.55;;;7.97;;
7563;SDS011;3823;53.586;10.040;2023-11-21T07:22:03;14.93;;;8.15;;
7563;SDS011;3823;53.586;10.040;2023-11-21T07:24:30;14.00;;;8.73;;
7563;SDS011;3823;53.586;10.040;2023-11-21T07:26:56;9.00;;;7.18;;
7563;SDS011;3823;53.586;10.040;2023-11-21T07:29:23;12.07;;;8.40;;
7563;SDS011;3823;53.586;10.040;2023-11-21T07:31:50;9.85;;;7.70;;
7563;SDS011;3823;53.586;10.040;2023-11-21T07:34:16;10.98;;;8.65;;
7563;SDS011;3823;53.586;10.040;2023-11-21T07:36:42;9.70;;;8.07;;
7563;SDS011;3823;53.586;10.040;2023-11-21T07:39:10;8.85;;;6.30;;
7563;SDS011;3823;53.586;10.040;2023-11-21T07:41:36;12.45;;;9.27;;
7563;SDS011;3823;53.586;10.040;2023-11-21T07:44:03;10.82;;;7.13;;
7563;SDS011;3823;53.586;10.040;2023-11-21T07:46:28;8.98;;;6.93;;
7563;SDS011;3823;53.586;10.040;2023-11-21T07:48:54;11.65;;;7.85;;
7563;SDS011;3823;53.586;10.040;2023-11-21T07:51:20;9.63;;;6.43;;
7563;SDS011;3823;53.586;10.040;2023-11-21T07:53:45;6.95;;;6.25;;
7563;SDS011;3823;53.586;10.040;2023-11-21T07:56:11;7.47;;;6.35;;
7563;SDS011;3823;53.586;10.040;2023-11-21T07:58:37;9.18;;;7.40;;
7563;SDS011;3823;53.586;10.040;2023-11-21T08:01:03;11.35;;;6.55;;
7563;SDS011;3823;53.586;10.040;2023-11-21T08:03:29;11.57;;;6.93;;
7563;SDS011;3823;53.586;10.040;2023-11-21T08:05:59;9.85;;;7.18;;
7563;SDS011;3823;53.586;10.040;2023-11-21T08:08:24;10.55;;;6.90;;
7563;SDS011;3823;53.586;10.040;2023-11-21T08:10:51;10.70;;;6.88;;
7563;SDS011;3823;53.586;10.040;2023-11-21T08:13:25;11.20;;;6.80;;
7563;SDS011;3823;53.586;10.040;2023-11-21T08:15:56;9.07;;;6.38;;
7563;SDS011;3823;53.586;10.040;2023-11-21T08:18:26;9.20;;;6.65;;
7563;SDS011;3823;53.586;10.040;2023-11-21T08:20:52;7.70;;;5.85;;
7563;SDS011;3823;53.586;10.040;2023-11-21T08:23:20;7.22;;;5.75;;
7563;SDS011;3823;53.586;10.040;2023-11-21T08:25:45;6.88;;;6.03;;
7563;SDS011;3823;53.586;10.040;2023-11-21T08:28:11;7.47;;;5.88;;
7563;SDS011;3823;53.586;10.040;2023-11-21T08:30:39;10.63;;;6.13;;
7563;SDS011;3823;53.586;10.040;2023-11-21T08:33:06;6.72;;;5.80;;
7563;SDS011;3823;53.586;10.040;2023-11-21T08:35:33;5.97;;;5.07;;
7563;SDS011;3823;53.586;10.040;2023-11-21T08:37:59;8.07;;;6.10;;
7563;SDS011;3823;53.586;10.040;2023-11-21T08:40:25;12.02;;;5.88;;
7563;SDS011;3823;53.586;10.040;2023-11-21T08:42:50;7.90;;;5.80;;
7563;SDS011;3823;53.586;10.040;2023-11-21T08:45:17;6.00;;;5.25;;
7563;SDS011;3823;53.586;10.040;2023-11-21T08:47:44;8.32;;;5.13;;
7563;SDS011;3823;53.586;10.040;2023-11-21T08:50:10;5.18;;;4.25;;
7563;SDS011;3823;53.586;10.040;2023-11-21T08:52:37;6.18;;;5.30;;
7563;SDS011;3823;53.586;10.040;2023-11-21T08:55:04;5.80;;;5.00;;
7563;SDS011;3823;53.586;10.040;2023-11-21T08:57:35;9.40;;;5.00;;
7563;SDS011;3823;53.586;10.040;2023-11-21T09:00:02;6.60;;;4.90;;
7563;SDS011;3823;53.586;10.040;2023-11-21T09:02:32;4.55;;;4.13;;
7563;SDS011;3823;53.586;10.040;2023-11-21T09:04:59;6.30;;;4.82;;
7563;SDS011;3823;53.586;10.040;2023-11-21T09:07:28;5.68;;;5.10;;
7563;SDS011;3823;53.586;10.040;2023-11-21T09:09:54;5.03;;;4.25;;
7563;SDS011;3823;53.586;10.040;2023-11-21T09:12:19;6.28;;;4.65;;
7563;SDS011;3823;53.586;10.040;2023-11-21T09:14:46;7.72;;;4.60;;
7563;SDS011;3823;53.586;10.040;2023-11-21T09:17:11;6.55;;;4.43;;
7563;SDS011;3823;53.586;10.040;2023-11-21T09:19:37;5.88;;;3.63;;
7563;SDS011;3823;53.586;10.040;2023-11-21T09:22:03;4.40;;;3.88;;
7563;SDS011;3823;53.586;10.040;2023-11-21T09:24:30;7.00;;;3.80;;
7563;SDS011;3823;53.586;10.040;2023-11-21T09:26:56;5.70;;;5.00;;
7563;SDS011;3823;53.586;10.040;2023-11-21T09:29:22;10.75;;;4.97;;
7563;SDS011;3823;53.586;10.040;2023-11-21T09:31:47;9.00;;;4.60;;
7563;SDS011;3823;53.586;10.040;2023-11-21T09:34:14;5.40;;;4.57;;
7563;SDS011;3823;53.586;10.040;2023-11-21T09:36:40;5.22;;;4.72;;
7563;SDS011;3823;53.586;10.040;2023-11-21T09:39:06;6.45;;;5.15;;
7563;SDS011;3823;53.586;10.040;2023-11-21T09:41:36;5.70;;;4.07;;
7563;SDS011;3823;53.586;10.040;2023-11-21T09:44:09;4.90;;;3.92;;
7563;SDS011;3823;53.586;10.040;2023-11-21T09:46:40;6.88;;;4.32;;
7563;SDS011;3823;53.586;10.040;2023-11-21T09:49:08;6.68;;;4.65;;
7563;SDS011;3823;53.586;10.040;2023-11-21T09:51:38;5.70;;;3.88;;
7563;SDS011;3823;53.586;10.040;2023-11-21T09:54:07;4.03;;;3.63;;
7563;SDS011;3823;53.586;10.040;2023-11-21T09:56:35;7.97;;;5.18;;
7563;SDS011;3823;53.586;10.040;2023-11-21T09:59:01;5.85;;;3.70;;
7563;SDS011;3823;53.586;10.040;2023-11-21T10:01:34;4.75;;;3.67;;
7563;SDS011;3823;53.586;10.040;2023-11-21T10:04:01;5.18;;;3.58;;
7563;SDS011;3823;53.586;10.040;2023-11-21T10:06:27;4.35;;;3.70;;
7563;SDS011;3823;53.586;10.040;2023-11-21T10:08:55;9.18;;;3.63;;
7563;SDS011;3823;53.586;10.040;2023-11-21T10:11:23;4.30;;;3.90;;
7563;SDS011;3823;53.586;10.040;2023-11-21T10:13:52;3.42;;;3.13;;
7563;SDS011;3823;53.586;10.040;2023-11-21T10:16:19;4.43;;;3.70;;
7563;SDS011;3823;53.586;10.040;2023-11-21T10:18:48;5.60;;;3.83;;
7563;SDS011;3823;53.586;10.040;2023-11-21T10:21:17;4.82;;;4.07;;
7563;SDS011;3823;53.586;10.040;2023-11-21T10:23:43;4.25;;;3.45;;
7563;SDS011;3823;53.586;10.040;2023-11-21T10:26:09;5.28;;;4.47;;
7563;SDS011;3823;53.586;10.040;2023-11-21T10:28:41;3.08;;;2.50;;
7563;SDS011;3823;53.586;10.040;2023-11-21T10:31:20;5.22;;;4.18;;
7563;SDS011;3823;53.586;10.040;2023-11-21T10:33:46;3.97;;;3.22;;
7563;SDS011;3823;53.586;10.040;2023-11-21T10:36:11;3.80;;;3.42;;
7563;SDS011;3823;53.586;10.040;2023-11-21T10:38:42;4.95;;;4.43;;
7563;SDS011;3823;53.586;10.040;2023-11-21T10:41:10;3.45;;;2.95;;
7563;SDS011;3823;53.586;10.040;2023-11-21T10:43:37;5.93;;;3.72;;
7563;SDS011;3823;53.586;10.040;2023-11-21T10:46:03;3.70;;;3.08;;
7563;SDS011;3823;53.586;10.040;2023-11-21T10:48:30;3.47;;;3.17;;
7563;SDS011;3823;53.586;10.040;2023-11-21T10:50:58;3.90;;;3.35;;
7563;SDS011;3823;53.586;10.040;2023-11-21T10:53:23;3.75;;;2.78;;
7563;SDS011;3823;53.586;10.040;2023-11-21T10:56:00;5.72;;;2.97;;
7563;SDS011;3823;53.586;10.040;2023-11-21T10:58:30;3.33;;;3.00;;
7563;SDS011;3823;53.586;10.040;2023-11-21T11:00:57;3.75;;;3.28;;
7563;SDS011;3823;53.586;10.040;2023-11-21T11:03:23;4.00;;;3.60;;
7563;SDS011;3823;53.586;10.040;2023-11-21T11:05:49;3.47;;;3.17;;
7563;SDS011;3823;53.586;10.040;2023-11-21T11:08:20;5.80;;;3.70;;
7563;SDS011;3823;53.586;10.040;2023-11-21T11:10:51;4.22;;;3.70;;
7563;SDS011;3823;53.586;10.040;2023-11-21T11:13:17;3.97;;;3.60;;
7563;SDS011;3823;53.586;10.040;2023-11-21T11:15:43;4.18;;;3.10;;
7563;SDS011;3823;53.586;10.040;2023-11-21T11:18:12;5.50;;;3.65;;
7563;SDS011;3823;53.586;10.040;2023-11-21T11:20:38;3.88;;;3.58;;
7563;SDS011;3823;53.586;10.040;2023-11-21T11:25:58;4.22;;;3.83;;
7563;SDS011;3823;53.586;10.040;2023-11-21T11:28:29;5.82;;;4.13;;
7563;SDS011;3823;53.586;10.040;2023-11-21T11:31:24;3.97;;;3.58;;
7563;SDS011;3823;53.586;10.040;2023-11-21T11:33:59;3.65;;;3.28;;
7563;SDS011;3823;53.586;10.040;2023-11-21T11:42:02;3.10;;;2.90;;
7563;SDS011;3823;53.586;10.040;2023-11-21T11:47:16;5.47;;;3.88;;
7563;SDS011;3823;53.586;10.040;2023-11-21T11:50:10;4.85;;;3.10;;
7563;SDS011;3823;53.586;10.040;2023-11-21T11:52:48;5.35;;;3.60;;
7563;SDS011;3823;53.586;10.040;2023-11-21T11:55:20;3.97;;;3.50;;
7563;SDS011;3823;53.586;10.040;2023-11-21T11:57:47;3.90;;;3.33;;
7563;SDS011;3823;53.586;10.040;2023-11-21T12:02:56;3.53;;;2.72;;
7563;SDS011;3823;53.586;10.040;2023-11-21T12:05:24;4.18;;;3.35;;
7563;SDS011;3823;53.586;10.040;2023-11-21T12:07:55;3.78;;;3.25;;
7563;SDS011;3823;53.586;10.040;2023-11-21T12:10:26;3.13;;;2.83;;
7563;SDS011;3823;53.586;10.040;2023-11-21T12:12:54;3.88;;;3.50;;
7563;SDS011;3823;53.586;10.040;2023-11-21T12:15:22;4.28;;;3.28;;
7563;SDS011;3823;53.586;10.040;2023-11-21T12:17:48;3.30;;;2.90;;
7563;SDS011;3823;53.586;10.040;2023-11-21T12:20:15;3.28;;;2.97;;
7563;SDS011;3823;53.586;10.040;2023-11-21T12:22:44;4.78;;;2.90;;
7563;SDS011;3823;53.586;10.040;2023-11-21T12:25:14;4.50;;;3.15;;
7563;SDS011;3823;53.586;10.040;2023-11-21T12:27:47;5.10;;;2.97;;
7563;SDS011;3823;53.586;10.040;2023-11-21T12:30:17;6.07;;;2.92;;
7563;SDS011;3823;53.586;10.040;2023-11-21T12:32:44;5.47;;;4.05;;
7563;SDS011;3823;53.586;10.040;2023-11-21T12:35:12;5.60;;;3.30;;
7563;SDS011;3823;53.586;10.040;2023-11-21T12:37:39;3.28;;;2.65;;
7563;SDS011;3823;53.586;10.040;2023-11-21T12:40:06;5.22;;;3.42;;
7563;SDS011;3823;53.586;10.040;2023-11-21T12:42:37;3.40;;;3.10;;
7563;SDS011;3823;53.586;10.040;2023-11-21T12:47:46;3.13;;;2.92;;
7563;SDS011;3823;53.586;10.040;2023-11-21T12:50:19;5.75;;;3.72;;
7563;SDS011;3823;53.586;10.040;2023-11-21T12:52:48;4.35;;;3.88;;
7563;SDS011;3823;53.586;10.040;2023-11-21T12:55:22;3.38;;;3.00;;
7563;SDS011;3823;53.586;10.040;2023-11-21T12:57:48;3.08;;;2.65;;
7563;SDS011;3823;53.586;10.040;2023-11-21T13:00:17;4.10;;;2.70;;
7563;SDS011;3823;53.586;10.040;2023-11-21T13:02:53;2.70;;;2.35;;
7563;SDS011;3823;53.586;10.040;2023-11-21T13:05:29;4.88;;;3.75;;
7563;SDS011;3823;53.586;10.040;2023-11-21T13:08:00;4.28;;;2.88;;
7563;SDS011;3823;53.586;10.040;2023-11-21T13:10:28;3.90;;;3.50;;
7563;SDS011;3823;53.586;10.040;2023-11-21T13:13:00;3.35;;;3.05;;
7563;SDS011;3823;53.586;10.040;2023-11-21T13:15:30;5.07;;;3.03;;
7563;SDS011;3823;53.586;10.040;2023-11-21T13:17:57;3.15;;;2.90;;
7563;SDS011;3823;53.586;10.040;2023-11-21T13:20:23;3.63;;;3.33;;
7563;SDS011;3823;53.586;10.040;2023-11-21T13:22:54;9.52;;;3.70;;
7563;SDS011;3823;53.586;10.040;2023-11-21T13:25:24;4.88;;;3.78;;
7563;SDS011;3823;53.586;10.040;2023-11-21T13:27:52;4.10;;;3.15;;
7563;SDS011;3823;53.586;10.040;2023-11-21T13:30:21;2.75;;;2.55;;
7563;SDS011;3823;53.586;10.040;2023-11-21T13:32:52;3.47;;;3.10;;
7563;SDS011;3823;53.586;10.040;2023-11-21T13:35:27;12.32;;;3.63;;
7563;SDS011;3823;53.586;10.040;2023-11-21T13:38:03;3.90;;;2.90;;
7563;SDS011;3823;53.586;10.040;2023-11-21T13:40:31;3.30;;;3.00;;
7563;SDS011;3823;53.586;10.040;2023-11-21T13:42:59;3.92;;;3.25;;
7563;SDS011;3823;53.586;10.040;2023-11-21T13:45:29;3.78;;;3.00;;
7563;SDS011;3823;53.586;10.040;2023-11-21T13:47:55;3.78;;;2.88;;
7563;SDS011;3823;53.586;10.040;2023-11-21T13:50:24;5.00;;;3.00;;
7563;SDS011;3823;53.586;10.040;2023-11-21T13:52:57;3.63;;;3.20;;
7563;SDS011;3823;53.586;10.040;2023-11-21T13:55:25;2.88;;;2.63;;
7563;SDS011;3823;53.586;10.040;2023-11-21T13:57:51;4.60;;;2.67;;
7563;SDS011;3823;53.586;10.040;2023-11-21T14:00:17;4.68;;;3.03;;
7563;SDS011;3823;53.586;10.040;2023-11-21T14:03:02;3.10;;;2.80;;
7563;SDS011;3823;53.586;10.040;2023-11-21T14:05:33;2.47;;;2.28;;
7563;SDS011;3823;53.586;10.040;2023-11-21T14:07:59;2.92;;;2.63;;
7563;SDS011;3823;53.586;10.040;2023-11-21T14:10:29;3.13;;;2.80;;
7563;SDS011;3823;53.586;10.040;2023-11-21T14:13:15;4.53;;;2.50;;
7563;SDS011;3823;53.586;10.040;2023-11-21T14:15:44;3.58;;;3.35;;
7563;SDS011;3823;53.586;10.040;2023-11-21T14:18:11;3.38;;;3.08;;
7563;SDS011;3823;53.586;10.040;2023-11-21T14:20:39;3.97;;;2.88;;
7563;SDS011;3823;53.586;10.040;2023-11-21T14:23:06;4.03;;;2.38;;
7563;SDS011;3823;53.586;10.040;2023-11-21T14:25:35;4.28;;;3.47;;
7563;SDS011;3823;53.586;10.040;2023-11-21T14:28:02;2.78;;;2.28;;
7563;SDS011;3823;53.586;10.040;2023-11-21T14:30:28;4.85;;;3.03;;
7563;SDS011;3823;53.586;10.040;2023-11-21T14:32:56;10.02;;;4.53;;
7563;SDS011;3823;53.586;10.040;2023-11-21T14:35:23;4.45;;;2.30;;
7563;SDS011;3823;53.586;10.040;2023-11-21T14:37:48;2.50;;;1.90;;
7563;SDS011;3823;53.586;10.040;2023-11-21T14:40:14;3.13;;;2.35;;
7563;SDS011;3823;53.586;10.040;2023-11-21T14:42:41;3.05;;;2.40;;
7563;SDS011;3823;53.586;10.040;2023-11-21T14:45:07;6.28;;;3.30;;
7563;SDS011;3823;53.586;10.040;2023-11-21T14:47:37;3.28;;;2.95;;
7563;SDS011;3823;53.586;10.040;2023-11-21T14:50:03;3.35;;;2.88;;
7563;SDS011;3823;53.586;10.040;2023-11-21T14:52:49;4.03;;;3.50;;
7563;SDS011;3823;53.586;10.040;2023-11-21T14:55:24;4.38;;;2.80;;
7563;SDS011;3823;53.586;10.040;2023-11-21T14:58:17;2.78;;;2.50;;
7563;SDS011;3823;53.586;10.040;2023-11-21T15:00:56;5.10;;;2.40;;
7563;SDS011;3823;53.586;10.040;2023-11-21T15:03:23;3.92;;;2.80;;
7563;SDS011;3823;53.586;10.040;2023-11-21T15:05:55;3.45;;;2.60;;
7563;SDS011;3823;53.586;10.040;2023-11-21T15:08:21;2.92;;;2.42;;
7563;SDS011;3823;53.586;10.040;2023-11-21T15:10:55;3.35;;;1.90;;
7563;SDS011;3823;53.586;10.040;2023-11-21T15:13:21;2.65;;;2.45;;